Time;durP1;ratioP1;P1;durP2;ratioP2;P2;SDS_P1;SDS_P2;PMS_P1;PMS_P2;Temp;Humidity;BMP_temperature;BMP_pressure;BME280_temperature;BME280_humidity;BME280_pressure;Samples;Min_cycle;Max_cycle;Signal;HPM_P1;HPM_P2
2022/10/29 00:00:55;;;;;;;5.65;3.80;;;28.50;95.00;;;;;;4966605;29;20023;-44
2022/10/29 00:03:22;;;;;;;4.53;3.38;;;28.50;95.00;;;;;;4966896;29;20035;-52
2022/10/29 00:06:04;;;;;;;7.43;3.85;;;28.50;95.20;;;;;;4965892;28;20031;-49
2022/10/29 00:08:32;;;;;;;7.43;3.85;;;28.50;95.40;;;;;;4967047;29;20078;-45
2022/10/29 00:11:17;;;;;;;10.27;7.32;;;28.50;95.10;;;;;;4966495;29;20236;-45
2022/10/29 00:13:44;;;;;;;9.25;4.10;;;28.50;95.20;;;;;;4966778;29;20023;-47
2022/10/29 00:16:14;;;;;;;6.60;3.72;;;28.50;95.20;;;;;;4966624;29;20031;-45
2022/10/29 00:18:41;;;;;;;6.63;3.40;;;28.50;95.20;;;;;;4967255;29;20031;-44
2022/10/29 00:21:12;;;;;;;6.35;3.92;;;28.50;95.30;;;;;;4966389;29;20066;-47
2022/10/29 00:23:39;;;;;;;6.80;4.50;;;28.40;95.20;;;;;;4966414;29;20027;-50
2022/10/29 00:26:06;;;;;;;4.90;3.97;;;28.40;95.20;;;;;;4966933;29;20038;-51
2022/10/29 00:28:33;;;;;;;8.23;4.72;;;28.40;95.20;;;;;;4967059;29;20049;-45
2022/10/29 00:31:04;;;;;;;7.80;4.30;;;28.40;95.30;;;;;;4966552;29;20030;-45
2022/10/29 00:33:31;;;;;;;5.43;4.80;;;28.40;95.30;;;;;;4949657;29;20031;-48
2022/10/29 00:36:15;;;;;;;6.47;4.80;;;28.40;95.50;;;;;;4966468;29;20031;-48
2022/10/29 00:38:42;;;;;;;8.18;4.90;;;28.40;95.30;;;;;;4966609;29;20038;-52
2022/10/29 00:41:12;;;;;;;6.97;4.88;;;28.40;95.40;;;;;;4966094;29;20094;-46
2022/10/29 00:43:43;;;;;;;8.93;5.35;;;28.40;95.40;;;;;;4966261;29;20039;-46
2022/10/29 00:46:30;;;;;;;11.32;5.97;;;28.40;95.40;;;;;;4966348;29;20023;-45
2022/10/29 00:48:57;;;;;;;12.25;7.18;;;28.40;95.50;;;;;;4966239;29;20085;-45
2022/10/29 00:51:28;;;;;;;17.67;9.18;;;28.40;95.50;;;;;;4966311;29;20086;-55
2022/10/29 00:54:04;;;;;;;10.93;9.20;;;28.40;95.60;;;;;;4966457;29;20031;-50
2022/10/29 00:56:39;;;;;;;9.75;8.50;;;28.40;95.60;;;;;;4966015;29;20019;-47
2022/10/29 00:59:07;;;;;;;14.63;8.02;;;28.40;95.70;;;;;;4966463;29;20094;-43
2022/10/29 01:01:34;;;;;;;10.70;7.57;;;28.40;95.80;;;;;;4965685;29;20045;-44
2022/10/29 01:04:02;;;;;;;10.30;7.15;;;28.40;95.80;;;;;;4966397;29;20039;-49
2022/10/29 01:06:29;;;;;;;11.00;7.13;;;28.40;95.80;;;;;;4965979;29;20369;-45
2022/10/29 01:08:55;;;;;;;8.80;6.75;;;28.40;95.90;;;;;;4966568;29;20095;-45
2022/10/29 01:11:54;;;;;;;7.95;5.82;;;28.40;95.90;;;;;;4966274;29;20034;-43
2022/10/29 01:14:53;;;;;;;5.70;5.20;;;28.30;95.90;;;;;;4936886;29;20039;-45
2022/10/29 01:18:07;;;;;;;10.90;5.18;;;28.30;95.90;;;;;;4956411;28;20039;-43
2022/10/29 01:20:49;;;;;;;5.07;4.15;;;28.30;96.00;;;;;;4892314;29;20029;-46
2022/10/29 01:23:43;;;;;;;6.35;4.50;;;28.40;96.00;;;;;;4962632;29;20043;-49
2022/10/29 01:26:39;;;;;;;5.55;4.40;;;28.30;96.00;;;;;;4969880;29;20027;-47
2022/10/29 01:29:34;;;;;;;10.10;4.40;;;28.30;96.10;;;;;;4970249;29;20038;-44
2022/10/29 01:32:32;;;;;;;8.55;4.20;;;28.30;96.10;;;;;;4969869;29;20038;-47
2022/10/29 01:35:14;;;;;;;11.77;4.47;;;28.30;96.10;;;;;;4969559;29;20046;-48
2022/10/29 01:37:53;;;;;;;7.57;3.85;;;28.30;96.10;;;;;;4954427;29;20027;-44
2022/10/29 01:40:44;;;;;;;6.65;3.78;;;28.30;96.10;;;;;;4969544;29;20071;-47
2022/10/29 01:43:37;;;;;;;4.28;3.47;;;28.30;96.10;;;;;;4969788;29;20046;-47
2022/10/29 01:46:15;;;;;;;5.50;3.38;;;28.30;96.10;;;;;;4935889;29;20043;-46
2022/10/29 01:48:47;;;;;;;9.13;3.40;;;28.30;96.10;;;;;;4968880;29;20045;-47
2022/10/29 01:51:25;;;;;;;5.10;3.20;;;28.30;96.10;;;;;;4969248;29;20039;-47
2022/10/29 01:53:52;;;;;;;7.20;3.28;;;28.30;96.10;;;;;;4969861;29;20175;-52
2022/10/29 01:56:20;;;;;;;6.85;3.22;;;28.30;96.10;;;;;;4951939;29;20023;-44
2022/10/29 01:58:52;;;;;;;6.95;3.03;;;28.30;96.10;;;;;;4969489;29;20031;-46
2022/10/29 02:01:48;;;;;;;16.48;3.55;;;28.20;96.10;;;;;;4969076;29;20218;-45
2022/10/29 02:04:35;;;;;;;18.67;4.53;;;28.30;96.10;;;;;;4969772;29;20027;-48
2022/10/29 02:07:30;;;;;;;14.07;3.80;;;28.30;96.20;;;;;;4969141;29;20098;-44
2022/10/29 02:10:23;;;;;;;10.40;3.22;;;28.20;96.20;;;;;;4969432;29;20046;-47
2022/10/29 02:12:52;;;;;;;13.93;4.03;;;28.20;96.20;;;;;;4969178;29;20207;-51
2022/10/29 02:15:23;;;;;;;11.43;3.63;;;28.20;96.20;;;;;;4969013;29;20023;-44
2022/10/29 02:17:50;;;;;;;7.47;3.50;;;28.20;96.10;;;;;;4969189;29;20035;-49
2022/10/29 02:20:17;;;;;;;7.60;3.90;;;28.20;96.10;;;;;;4969037;29;20020;-45
2022/10/29 02:22:44;;;;;;;9.32;3.63;;;28.20;96.20;;;;;;4968886;29;20035;-44
2022/10/29 02:25:12;;;;;;;10.05;3.88;;;28.20;96.20;;;;;;4968931;29;20192;-47
2022/10/29 02:27:40;;;;;;;10.95;4.10;;;28.20;96.20;;;;;;4968109;28;20038;-46
2022/10/29 02:30:08;;;;;;;10.85;4.10;;;28.20;96.20;;;;;;4969006;29;20027;-48
2022/10/29 02:32:35;;;;;;;8.65;3.95;;;28.20;96.20;;;;;;4968291;29;20350;-47
2022/10/29 02:35:02;;;;;;;10.32;4.15;;;28.20;96.20;;;;;;4968452;29;20031;-50
2022/10/29 02:37:31;;;;;;;9.60;4.53;;;28.20;96.10;;;;;;4968413;29;20074;-49
2022/10/29 02:39:58;;;;;;;9.13;3.45;;;28.20;96.20;;;;;;4968641;29;20177;-48
2022/10/29 02:42:24;;;;;;;7.38;3.92;;;28.10;96.10;;;;;;4968523;29;20039;-45
2022/10/29 02:44:51;;;;;;;8.52;3.95;;;28.10;96.00;;;;;;4968918;29;20091;-44
2022/10/29 02:47:18;;;;;;;10.88;3.72;;;28.10;95.90;;;;;;4968466;29;20039;-45
2022/10/29 02:49:44;;;;;;;9.48;3.25;;;28.10;95.80;;;;;;4968370;29;20169;-47
2022/10/29 02:52:11;;;;;;;6.35;3.50;;;28.10;95.60;;;;;;4968343;29;20023;-48
2022/10/29 02:54:38;;;;;;;6.65;3.00;;;28.10;95.50;;;;;;4968886;29;20039;-52
2022/10/29 02:57:05;;;;;;;6.75;2.90;;;28.10;95.30;;;;;;4968198;29;20071;-47
2022/10/29 02:59:32;;;;;;;6.97;3.28;;;28.10;95.10;;;;;;4968691;29;20183;-44
2022/10/29 03:01:58;;;;;;;8.55;3.00;;;28.10;95.00;;;;;;4968044;29;20031;-43
2022/10/29 03:04:25;;;;;;;6.75;2.88;;;28.10;94.90;;;;;;4968508;29;20039;-49
2022/10/29 03:06:51;;;;;;;6.18;2.53;;;28.10;94.80;;;;;;4968006;29;20054;-46
2022/10/29 03:09:18;;;;;;;6.28;3.08;;;28.00;94.70;;;;;;4968473;29;20038;-44
2022/10/29 03:11:44;;;;;;;8.75;3.10;;;28.10;94.70;;;;;;4964086;29;20037;-43
2022/10/29 03:14:11;;;;;;;9.60;2.83;;;28.00;94.70;;;;;;4955544;29;20039;-45
2022/10/29 03:16:37;;;;;;;9.18;2.90;;;28.00;94.60;;;;;;4947570;29;20332;-40
2022/10/29 03:19:04;;;;;;;11.68;2.55;;;28.00;94.50;;;;;;4948795;29;20043;-43
2022/10/29 03:21:30;;;;;;;5.65;3.10;;;28.00;94.50;;;;;;4947956;29;20252;-42
2022/10/29 03:23:57;;;;;;;6.72;3.00;;;28.00;94.40;;;;;;4948498;29;20031;-45
2022/10/29 03:26:24;;;;;;;5.45;2.75;;;28.00;94.30;;;;;;4948122;29;20142;-47
2022/10/29 03:28:51;;;;;;;6.65;3.00;;;28.00;94.40;;;;;;4948231;29;20039;-43
2022/10/29 03:31:18;;;;;;;7.07;2.50;;;28.00;94.30;;;;;;4947657;29;20331;-42
2022/10/29 03:33:44;;;;;;;7.50;2.80;;;28.00;94.30;;;;;;4960266;29;20180;-43
2022/10/29 03:36:11;;;;;;;3.75;2.30;;;28.00;94.20;;;;;;4967403;29;20365;-44
2022/10/29 03:38:37;;;;;;;4.45;2.47;;;28.00;94.10;;;;;;4961971;28;20035;-44
2022/10/29 03:41:09;;;;;;;7.20;2.53;;;28.00;94.10;;;;;;4957957;29;20078;-45
2022/10/29 03:43:37;;;;;;;5.07;2.70;;;27.90;94.10;;;;;;4966992;29;20043;-43
2022/10/29 03:46:04;;;;;;;4.90;2.45;;;28.00;94.10;;;;;;4966894;29;20031;-48
2022/10/29 03:48:31;;;;;;;4.75;2.60;;;28.00;94.10;;;;;;4966646;29;20071;-42
2022/10/29 03:51:00;;;;;;;7.40;2.65;;;28.00;94.10;;;;;;4966704;29;20039;-43
2022/10/29 03:53:28;;;;;;;7.22;2.63;;;27.90;94.10;;;;;;4966929;29;20031;-45
2022/10/29 03:55:56;;;;;;;5.22;2.55;;;27.90;94.00;;;;;;4966620;29;20035;-45
2022/10/29 03:58:24;;;;;;;4.53;2.60;;;27.90;94.00;;;;;;4966868;29;20192;-46
2022/10/29 04:00:59;;;;;;;5.95;2.58;;;27.90;94.20;;;;;;4966683;29;20023;-48
2022/10/29 04:03:27;;;;;;;4.20;2.55;;;27.90;93.90;;;;;;4966506;29;20043;-43
2022/10/29 04:05:54;;;;;;;6.30;2.50;;;27.90;93.90;;;;;;4966685;29;20255;-46
2022/10/29 04:08:21;;;;;;;5.68;2.55;;;27.90;94.00;;;;;;4966625;29;20043;-45
2022/10/29 04:10:50;;;;;;;7.30;2.50;;;27.90;94.00;;;;;;4966547;29;20031;-48
2022/10/29 04:13:18;;;;;;;5.45;2.47;;;27.90;94.00;;;;;;4966778;29;20023;-46
2022/10/29 04:15:45;;;;;;;9.45;2.97;;;27.90;94.00;;;;;;4966310;29;20086;-42
2022/10/29 04:18:12;;;;;;;6.68;2.50;;;27.90;94.00;;;;;;4966274;29;20023;-42
2022/10/29 04:20:40;;;;;;;7.90;2.53;;;27.90;94.10;;;;;;4966481;29;20094;-47
2022/10/29 04:23:06;;;;;;;4.13;2.70;;;27.90;94.10;;;;;;4966530;29;20236;-45
2022/10/29 04:25:33;;;;;;;7.95;3.05;;;27.80;94.10;;;;;;4966262;29;20067;-42
2022/10/29 04:28:00;;;;;;;5.07;2.70;;;27.80;94.10;;;;;;4966283;29;20258;-42
2022/10/29 04:30:26;;;;;;;4.93;2.72;;;27.80;94.10;;;;;;4966208;29;20054;-49
2022/10/29 04:32:57;;;;;;;5.47;2.40;;;27.80;94.20;;;;;;4966102;29;20038;-48
2022/10/29 04:35:28;;;;;;;4.32;2.38;;;27.80;94.20;;;;;;4950240;29;20071;-43
2022/10/29 04:37:54;;;;;;;8.60;2.92;;;27.80;94.20;;;;;;4947165;29;20034;-45
2022/10/29 04:40:23;;;;;;;4.75;2.97;;;27.80;94.20;;;;;;4946644;29;20273;-45
2022/10/29 04:42:50;;;;;;;8.90;2.83;;;27.80;94.20;;;;;;4946741;29;20028;-44
2022/10/29 04:45:16;;;;;;;5.82;2.90;;;27.80;94.30;;;;;;4946690;29;20027;-43
2022/10/29 04:47:43;;;;;;;6.43;2.92;;;27.80;94.30;;;;;;4938164;29;20035;-43
2022/10/29 04:50:10;;;;;;;5.97;3.00;;;27.80;94.40;;;;;;4946522;29;20390;-43
2022/10/29 04:52:36;;;;;;;7.15;3.03;;;27.80;94.30;;;;;;4946574;29;20043;-45
2022/10/29 04:55:03;;;;;;;7.72;2.90;;;27.80;94.30;;;;;;4946374;29;20331;-43
2022/10/29 04:57:30;;;;;;;6.13;3.17;;;27.80;94.30;;;;;;4946674;29;20035;-44
2022/10/29 04:59:56;;;;;;;5.85;2.72;;;27.80;94.40;;;;;;4946772;29;20023;-50
2022/10/29 05:02:23;;;;;;;6.53;2.60;;;27.80;94.40;;;;;;4946387;29;20042;-44
2022/10/29 05:04:49;;;;;;;4.63;2.47;;;27.80;94.50;;;;;;4946712;29;20039;-43
2022/10/29 05:07:16;;;;;;;5.18;2.63;;;27.80;94.40;;;;;;4946502;29;20027;-42
2022/10/29 05:09:42;;;;;;;5.35;2.53;;;27.80;94.50;;;;;;4946967;29;20079;-47
2022/10/29 05:12:09;;;;;;;8.35;2.63;;;27.80;94.60;;;;;;4946316;29;20031;-43
2022/10/29 05:14:37;;;;;;;8.07;2.88;;;27.80;94.60;;;;;;4946884;29;20031;-45
2022/10/29 05:17:03;;;;;;;3.08;2.50;;;27.80;94.60;;;;;;4946271;29;20087;-43
2022/10/29 05:19:30;;;;;;;5.15;2.70;;;27.80;94.60;;;;;;4946716;29;20059;-45
2022/10/29 05:21:56;;;;;;;3.35;2.60;;;27.80;94.60;;;;;;4946403;29;20059;-46
2022/10/29 05:24:23;;;;;;;4.07;2.70;;;27.80;94.60;;;;;;4946323;29;20036;-44
2022/10/29 05:26:49;;;;;;;5.43;2.80;;;27.80;94.70;;;;;;4946548;29;20043;-45
2022/10/29 05:29:16;;;;;;;9.85;2.80;;;27.80;94.70;;;;;;4946469;29;20036;-42
2022/10/29 05:31:42;;;;;;;8.23;3.25;;;27.80;94.60;;;;;;4946223;29;20034;-42
2022/10/29 05:34:09;;;;;;;8.75;3.25;;;27.80;94.60;;;;;;4946600;29;20296;-47
2022/10/29 05:36:35;;;;;;;4.68;2.47;;;27.80;94.60;;;;;;4946336;29;20043;-44
2022/10/29 05:39:02;;;;;;;5.90;3.08;;;27.80;94.70;;;;;;4946963;29;20031;-43
2022/10/29 05:41:28;;;;;;;4.80;2.60;;;27.80;94.70;;;;;;4946056;29;20079;-42
2022/10/29 05:43:55;;;;;;;4.95;2.60;;;27.80;94.70;;;;;;4946755;29;20071;-44
2022/10/29 05:46:21;;;;;;;9.95;2.95;;;27.80;94.60;;;;;;4946444;29;20036;-47
2022/10/29 05:48:48;;;;;;;6.43;2.70;;;27.70;94.70;;;;;;4946084;29;20062;-46
2022/10/29 05:51:14;;;;;;;5.70;2.55;;;27.70;94.60;;;;;;4946308;29;20039;-49
2022/10/29 05:53:41;;;;;;;6.68;2.50;;;27.70;94.70;;;;;;4946435;29;20023;-46
2022/10/29 05:56:07;;;;;;;8.27;2.47;;;27.70;94.70;;;;;;4945606;29;20027;-46
2022/10/29 05:58:34;;;;;;;5.88;2.40;;;27.70;94.60;;;;;;4946176;29;20305;-44
2022/10/29 06:01:09;;;;;;;3.78;2.47;;;27.70;94.70;;;;;;4945950;29;20212;-43
2022/10/29 06:03:36;;;;;;;4.57;2.38;;;27.70;94.60;;;;;;4947925;29;20047;-42
2022/10/29 06:06:04;;;;;;;6.88;2.67;;;27.70;94.60;;;;;;4949524;29;20035;-45
2022/10/29 06:08:30;;;;;;;5.15;2.60;;;27.70;94.70;;;;;;4949898;29;20041;-43
2022/10/29 06:11:01;;;;;;;9.10;3.08;;;27.70;94.70;;;;;;4949265;29;20031;-41
2022/10/29 06:13:28;;;;;;;7.82;2.80;;;27.70;94.90;;;;;;4949701;29;20023;-44
2022/10/29 06:16:00;;;;;;;5.53;2.50;;;27.70;94.80;;;;;;4949429;29;20036;-44
2022/10/29 06:18:27;;;;;;;6.30;2.70;;;27.70;94.90;;;;;;4949526;29;20028;-43
2022/10/29 06:20:56;;;;;;;5.63;2.88;;;27.60;95.00;;;;;;4949310;29;20043;-42
2022/10/29 06:23:23;;;;;;;7.03;2.55;;;27.70;95.10;;;;;;4949386;29;20028;-42
2022/10/29 06:25:49;;;;;;;7.15;2.65;;;27.70;95.10;;;;;;4949214;29;20099;-43
2022/10/29 06:28:17;;;;;;;5.63;2.80;;;27.60;95.10;;;;;;4949523;29;20043;-42
2022/10/29 06:30:49;;;;;;;7.95;2.72;;;27.60;95.20;;;;;;4948804;29;20024;-44
2022/10/29 06:33:18;;;;;;;5.30;2.57;;;27.60;95.20;;;;;;4949157;29;20032;-42
2022/10/29 06:35:45;;;;;;;3.80;2.53;;;27.60;95.20;;;;;;4949149;29;20259;-42
2022/10/29 06:38:12;;;;;;;7.15;2.90;;;27.60;95.30;;;;;;4948911;29;20084;-42
2022/10/29 06:40:39;;;;;;;7.22;2.78;;;27.60;95.30;;;;;;4948427;29;20083;-42
2022/10/29 06:43:08;;;;;;;9.80;3.20;;;27.60;95.30;;;;;;4949107;29;20031;-45
2022/10/29 06:45:36;;;;;;;5.63;2.45;;;27.60;95.30;;;;;;4948729;29;20058;-45
2022/10/29 06:48:04;;;;;;;8.68;2.85;;;27.60;95.30;;;;;;4948682;29;20040;-43
2022/10/29 06:50:31;;;;;;;6.20;2.40;;;27.60;95.30;;;;;;4948650;29;20343;-43
2022/10/29 06:52:58;;;;;;;6.53;2.80;;;27.60;95.40;;;;;;4948818;29;20024;-45
2022/10/29 06:55:26;;;;;;;7.45;2.67;;;27.60;95.40;;;;;;4948568;29;20024;-43
2022/10/29 06:58:03;;;;;;;6.05;2.40;;;27.60;95.40;;;;;;4948977;29;20043;-43
2022/10/29 07:00:31;;;;;;;6.88;2.60;;;27.60;95.50;;;;;;4948532;29;20032;-42
2022/10/29 07:02:58;;;;;;;4.93;2.28;;;27.60;95.40;;;;;;4948498;29;20040;-49
2022/10/29 07:05:25;;;;;;;8.57;2.42;;;27.60;95.40;;;;;;4948598;29;20023;-44
2022/10/29 07:07:56;;;;;;;8.48;2.58;;;27.50;95.50;;;;;;4948711;29;20326;-49
2022/10/29 07:10:24;;;;;;;8.93;2.85;;;27.60;95.40;;;;;;4948537;29;20320;-43
2022/10/29 07:12:50;;;;;;;5.60;2.40;;;27.50;95.30;;;;;;4948209;29;20040;-42
2022/10/29 07:15:17;;;;;;;9.10;2.42;;;27.50;95.20;;;;;;4948404;29;20139;-46
2022/10/29 07:17:53;;;;;;;7.78;2.55;;;27.50;95.20;;;;;;4948468;29;20076;-42
2022/10/29 07:20:19;;;;;;;3.58;2.28;;;27.50;95.20;;;;;;4948138;29;20205;-43
2022/10/29 07:22:50;;;;;;;6.20;2.70;;;27.50;95.20;;;;;;4948226;29;20091;-47
2022/10/29 07:25:18;;;;;;;5.35;2.33;;;27.50;95.20;;;;;;4948525;29;20267;-45
2022/10/29 07:27:44;;;;;;;6.28;2.20;;;27.50;95.10;;;;;;4948280;29;20042;-43
2022/10/29 07:30:12;;;;;;;6.20;2.38;;;27.50;95.20;;;;;;4948038;29;20023;-44
2022/10/29 07:32:38;;;;;;;7.07;2.30;;;27.50;95.10;;;;;;4947950;29;20031;-49
2022/10/29 07:35:07;;;;;;;6.00;2.60;;;27.40;95.10;;;;;;4948121;29;20211;-43
2022/10/29 07:37:34;;;;;;;7.43;2.55;;;27.40;95.10;;;;;;4948209;29;20094;-48
2022/10/29 07:40:00;;;;;;;7.57;2.42;;;27.40;95.00;;;;;;4947871;29;20063;-47
2022/10/29 07:42:27;;;;;;;7.22;2.33;;;27.40;95.00;;;;;;4947607;29;20050;-46
2022/10/29 07:44:53;;;;;;;8.02;2.40;;;27.40;95.00;;;;;;4947777;29;20039;-42
2022/10/29 07:47:20;;;;;;;6.10;2.33;;;27.40;94.90;;;;;;4947837;29;20036;-42
2022/10/29 07:49:46;;;;;;;6.35;2.38;;;27.40;95.00;;;;;;4947625;29;20110;-43
2022/10/29 07:52:13;;;;;;;4.97;2.40;;;27.40;95.00;;;;;;4947631;29;20216;-43
2022/10/29 07:54:39;;;;;;;7.70;2.00;;;27.40;95.00;;;;;;4948076;29;20028;-43
2022/10/29 07:57:06;;;;;;;6.63;2.28;;;27.40;95.00;;;;;;4947567;29;20067;-42
2022/10/29 07:59:33;;;;;;;6.93;2.50;;;27.40;95.00;;;;;;4947914;29;20032;-47
2022/10/29 08:01:59;;;;;;;8.20;2.40;;;27.30;94.90;;;;;;4947470;29;20056;-43
2022/10/29 08:04:26;;;;;;;5.40;2.42;;;27.30;94.90;;;;;;4947252;29;20324;-45
2022/10/29 08:06:52;;;;;;;5.82;2.20;;;27.30;94.80;;;;;;4947359;29;20027;-43
2022/10/29 08:09:19;;;;;;;5.97;2.00;;;27.30;94.80;;;;;;4947628;29;20059;-46
2022/10/29 08:11:45;;;;;;;6.88;2.38;;;27.30;94.90;;;;;;4947243;29;20039;-44
2022/10/29 08:14:12;;;;;;;4.93;2.05;;;27.30;94.90;;;;;;4947708;29;20231;-45
2022/10/29 08:16:38;;;;;;;6.90;2.05;;;27.30;95.00;;;;;;4947479;29;20038;-44
2022/10/29 08:19:05;;;;;;;7.45;2.20;;;27.30;95.00;;;;;;4947172;29;20019;-43
2022/10/29 08:21:32;;;;;;;6.20;2.10;;;27.30;95.00;;;;;;4947334;29;20332;-44
2022/10/29 08:23:59;;;;;;;7.82;2.22;;;27.30;95.00;;;;;;4947514;29;20063;-46
2022/10/29 08:26:25;;;;;;;6.40;2.10;;;27.30;94.90;;;;;;4946783;29;20027;-47
2022/10/29 08:28:52;;;;;;;7.13;2.55;;;27.30;95.00;;;;;;4947258;29;20035;-44
2022/10/29 08:31:18;;;;;;;5.75;2.28;;;27.30;95.00;;;;;;4947105;29;20042;-44
2022/10/29 08:33:47;;;;;;;5.80;2.25;;;27.30;95.00;;;;;;4947200;29;20098;-43
2022/10/29 08:36:15;;;;;;;6.65;2.30;;;27.30;95.00;;;;;;4946820;29;20071;-44
2022/10/29 08:38:42;;;;;;;6.65;2.30;;;27.30;95.10;;;;;;4947357;29;20024;-44
2022/10/29 08:41:20;;;;;;;7.20;2.33;;;27.20;95.10;;;;;;4946659;29;20032;-46
2022/10/29 08:44:20;;;;;;;4.25;2.00;;;27.30;95.00;;;;;;4945762;29;20205;-42
2022/10/29 08:47:03;;;;;;;6.57;2.35;;;27.30;94.90;;;;;;4946426;29;20145;-42
2022/10/29 08:49:48;;;;;;;7.85;2.30;;;27.20;94.90;;;;;;4946593;29;20110;-43
2022/10/29 08:52:24;;;;;;;5.65;2.22;;;27.20;94.90;;;;;;4946773;29;20043;-44
2022/10/29 08:55:05;;;;;;;6.18;1.98;;;27.20;94.90;;;;;;4946512;29;20020;-43
2022/10/29 08:57:37;;;;;;;5.78;2.17;;;27.20;94.90;;;;;;4946392;29;20073;-46
2022/10/29 09:00:15;;;;;;;3.85;2.30;;;27.20;94.90;;;;;;4946615;29;20027;-48
2022/10/29 09:02:42;;;;;;;5.80;2.33;;;27.20;94.80;;;;;;4946678;29;20043;-45
2022/10/29 09:05:17;;;;;;;6.13;2.03;;;27.20;94.90;;;;;;4946650;29;20032;-43
2022/10/29 09:08:24;;;;;;;6.40;2.10;;;27.20;94.90;;;;;;4946464;29;20043;-48
2022/10/29 09:10:56;;;;;;;5.38;2.35;;;27.10;94.80;;;;;;4946222;29;20028;-44
2022/10/29 09:13:30;;;;;;;8.23;1.92;;;27.20;94.90;;;;;;4946577;29;20027;-47
2022/10/29 09:16:11;;;;;;;7.13;2.00;;;27.20;94.90;;;;;;4946361;29;20067;-41
2022/10/29 09:18:46;;;;;;;7.13;2.22;;;27.10;94.90;;;;;;4946949;29;20066;-41
2022/10/29 09:21:13;;;;;;;8.35;2.03;;;27.20;95.00;;;;;;4927269;29;20219;-43
2022/10/29 09:24:01;;;;;;;5.88;2.10;;;27.10;94.90;;;;;;4927561;29;20179;-45
2022/10/29 09:26:57;;;;;;;6.55;2.17;;;27.10;94.90;;;;;;4927167;29;20054;-48
2022/10/29 09:29:34;;;;;;;5.65;2.00;;;27.10;94.90;;;;;;4927527;29;20120;-44
2022/10/29 09:32:36;;;;;;;5.05;1.80;;;27.10;94.90;;;;;;4927007;29;20032;-45
2022/10/29 09:35:14;;;;;;;4.35;1.98;;;27.10;94.80;;;;;;4922952;29;20068;-42
2022/10/29 09:37:53;;;;;;;6.68;1.90;;;27.10;94.90;;;;;;4927717;29;20031;-42
2022/10/29 09:40:40;;;;;;;8.52;2.10;;;27.00;94.80;;;;;;4930922;29;20032;-46
2022/10/29 09:43:17;;;;;;;10.63;2.00;;;27.10;94.90;;;;;;4931327;29;20040;-40
2022/10/29 09:45:54;;;;;;;5.00;1.90;;;27.10;94.90;;;;;;4930892;29;20042;-42
2022/10/29 09:48:34;;;;;;;5.13;1.90;;;27.10;94.90;;;;;;4930858;29;20040;-42
2022/10/29 09:51:45;;;;;;;5.47;1.85;;;27.00;94.90;;;;;;4930702;29;20028;-45
2022/10/29 09:54:11;;;;;;;8.05;1.98;;;27.00;94.90;;;;;;4910175;29;20041;-49
2022/10/29 09:56:43;;;;;;;7.40;2.10;;;27.00;94.90;;;;;;4910367;29;20028;-44
2022/10/29 09:59:45;;;;;;;7.43;1.85;;;27.00;95.00;;;;;;4920523;29;20062;-41
2022/10/29 10:02:41;;;;;;;5.95;1.90;;;27.00;95.00;;;;;;4929580;29;20051;-44
2022/10/29 10:05:18;;;;;;;6.72;1.90;;;27.00;95.10;;;;;;4928875;29;20324;-46
2022/10/29 10:08:08;;;;;;;11.70;2.03;;;27.00;95.10;;;;;;4930465;29;20128;-46
2022/10/29 10:10:53;;;;;;;9.67;2.03;;;27.00;95.10;;;;;;4930435;29;20031;-40
2022/10/29 10:13:23;;;;;;;5.90;2.00;;;27.00;95.10;;;;;;4930596;29;20124;-47
2022/10/29 10:15:55;;;;;;;8.15;2.05;;;27.00;95.10;;;;;;4930387;29;20060;-42
2022/10/29 10:18:31;;;;;;;7.72;2.00;;;27.00;95.00;;;;;;4930413;29;20047;-42
2022/10/29 10:21:24;;;;;;;5.50;1.90;;;27.00;94.90;;;;;;4930480;29;20016;-43
2022/10/29 10:23:53;;;;;;;5.57;2.00;;;27.00;94.80;;;;;;4930572;29;20164;-41
2022/10/29 10:26:43;;;;;;;4.45;1.85;;;27.00;94.80;;;;;;4930235;29;20215;-42
2022/10/29 10:29:20;;;;;;;10.35;1.80;;;27.00;94.70;;;;;;4942876;29;20193;-43
2022/10/29 10:31:55;;;;;;;7.32;2.00;;;27.00;94.70;;;;;;4947981;29;20099;-47
2022/10/29 10:34:39;;;;;;;7.03;2.22;;;26.90;94.70;;;;;;4949464;29;20224;-44
2022/10/29 10:37:09;;;;;;;23.58;3.85;;;27.00;94.70;;;;;;4948903;29;20342;-42
2022/10/29 10:39:45;;;;;;;9.30;2.50;;;27.00;94.80;;;;;;4949643;29;20079;-45
2022/10/29 10:42:17;;;;;;;11.70;2.97;;;27.00;94.80;;;;;;4948831;29;20080;-46
2022/10/29 10:45:00;;;;;;;8.03;2.70;;;27.00;94.90;;;;;;4948880;29;20047;-42
2022/10/29 10:47:34;;;;;;;13.15;2.55;;;26.90;94.80;;;;;;4946687;29;20271;-43
2022/10/29 10:50:32;;;;;;;13.23;2.30;;;27.00;94.80;;;;;;4946489;29;20052;-41
2022/10/29 10:53:04;;;;;;;4.38;2.05;;;27.00;94.80;;;;;;4933375;29;20047;-43
2022/10/29 10:55:37;;;;;;;10.27;2.17;;;26.90;94.70;;;;;;4948656;29;20103;-41
2022/10/29 10:58:24;;;;;;;15.27;2.80;;;26.90;94.70;;;;;;4948582;29;20031;-41
2022/10/29 11:01:21;;;;;;;14.43;2.78;;;26.90;94.80;;;;;;4948552;29;20103;-49
2022/10/29 11:03:59;;;;;;;11.27;2.38;;;27.00;94.70;;;;;;4921649;29;20048;-47
2022/10/29 11:06:34;;;;;;;14.57;2.50;;;26.90;94.50;;;;;;4947953;29;20082;-49
2022/10/29 11:09:20;;;;;;;12.63;2.50;;;26.90;94.50;;;;;;4947871;29;20070;-47
2022/10/29 11:12:10;;;;;;;15.73;2.15;;;26.90;94.50;;;;;;4949005;29;20027;-46
2022/10/29 11:14:48;;;;;;;7.57;2.00;;;26.90;94.50;;;;;;4949186;29;20039;-45
2022/10/29 11:17:31;;;;;;;8.50;2.63;;;26.90;94.60;;;;;;4948297;29;20055;-46
2022/10/29 11:20:13;;;;;;;8.35;2.28;;;26.90;94.40;;;;;;4946675;29;20323;-48
2022/10/29 11:23:00;;;;;;;13.52;2.75;;;26.90;94.30;;;;;;4946509;29;20132;-46
2022/10/29 11:25:41;;;;;;;5.82;2.60;;;26.90;94.40;;;;;;4946443;29;20051;-48
2022/10/29 11:28:19;;;;;;;10.90;2.50;;;27.00;94.40;;;;;;4929536;29;20103;-44
2022/10/29 11:31:01;;;;;;;10.90;2.40;;;27.00;94.50;;;;;;4946291;29;20329;-50
2022/10/29 11:33:49;;;;;;;8.52;1.92;;;27.00;94.40;;;;;;4947368;29;20032;-47
2022/10/29 11:36:22;;;;;;;6.35;1.85;;;27.00;94.50;;;;;;4948422;29;20348;-44
2022/10/29 11:39:20;;;;;;;5.18;2.17;;;27.00;94.50;;;;;;4948916;29;20066;-45
2022/10/29 11:41:58;;;;;;;4.57;1.92;;;27.00;94.50;;;;;;4926624;29;20042;-45
2022/10/29 11:44:26;;;;;;;8.38;2.20;;;27.00;94.60;;;;;;4948969;29;20039;-47
2022/10/29 11:47:34;;;;;;;9.35;2.63;;;27.00;94.60;;;;;;4948381;29;20035;-45
2022/10/29 11:50:09;;;;;;;6.53;2.72;;;27.00;94.50;;;;;;4948197;29;20104;-45
2022/10/29 11:53:02;;;;;;;10.70;2.30;;;27.10;94.60;;;;;;4948587;29;20068;-43
2022/10/29 11:55:41;;;;;;;9.05;2.10;;;27.10;94.50;;;;;;4948263;29;20031;-45
2022/10/29 11:58:17;;;;;;;7.93;2.10;;;27.10;94.40;;;;;;4948090;29;20087;-48
2022/10/29 12:01:21;;;;;;;5.65;2.17;;;27.10;94.50;;;;;;4947084;29;20042;-45
2022/10/29 12:03:54;;;;;;;8.82;2.03;;;27.10;94.50;;;;;;4948695;29;20099;-48
2022/10/29 12:06:41;;;;;;;7.43;2.72;;;27.20;94.40;;;;;;4948232;29;20035;-46
2022/10/29 12:09:44;;;;;;;8.65;3.20;;;27.20;94.20;;;;;;4947939;29;20020;-45
2022/10/29 12:12:43;;;;;;;10.30;3.40;;;27.20;94.10;;;;;;4948217;29;20031;-49
2022/10/29 12:15:34;;;;;;;8.20;3.60;;;27.20;94.20;;;;;;4940386;29;20043;-52
2022/10/29 12:18:17;;;;;;;8.23;2.47;;;27.20;94.20;;;;;;4947637;29;20028;-48
2022/10/29 12:20:55;;;;;;;6.88;2.20;;;27.30;94.00;;;;;;4947730;29;20083;-45
2022/10/29 12:23:31;;;;;;;8.13;2.20;;;27.30;94.10;;;;;;4947712;29;20030;-48
2022/10/29 12:26:13;;;;;;;7.25;2.30;;;27.30;94.00;;;;;;4947384;29;20027;-45
2022/10/29 12:29:13;;;;;;;8.18;2.13;;;27.30;94.00;;;;;;4947997;29;20042;-47
2022/10/29 12:31:44;;;;;;;5.35;1.83;;;27.30;94.10;;;;;;4947722;29;20090;-45
2022/10/29 12:34:16;;;;;;;7.10;2.35;;;27.40;94.10;;;;;;4948175;29;20039;-48
2022/10/29 12:36:59;;;;;;;8.23;2.40;;;27.40;94.10;;;;;;4947794;29;20083;-46
2022/10/29 12:39:35;;;;;;;6.32;2.65;;;27.40;94.10;;;;;;4948125;29;20063;-47
2022/10/29 12:42:13;;;;;;;7.55;2.75;;;27.40;94.10;;;;;;4947063;29;20058;-47
2022/10/29 12:44:50;;;;;;;8.43;2.45;;;27.50;94.20;;;;;;4947993;29;20039;-52
2022/10/29 12:47:27;;;;;;;7.07;2.10;;;27.50;94.10;;;;;;4947141;29;20028;-44
2022/10/29 12:50:09;;;;;;;7.47;2.38;;;27.50;94.10;;;;;;4947156;29;20051;-45
2022/10/29 12:52:55;;;;;;;10.68;2.33;;;27.50;94.20;;;;;;4947327;29;20023;-44
2022/10/29 12:55:22;;;;;;;9.02;2.33;;;27.50;94.40;;;;;;4947248;29;20027;-49
2022/10/29 12:57:52;;;;;;;7.88;2.30;;;27.50;94.10;;;;;;4947071;29;20091;-45
2022/10/29 13:00:46;;;;;;;6.35;2.10;;;27.60;94.10;;;;;;4946586;29;20027;-44
2022/10/29 13:03:59;;;;;;;4.10;2.10;;;27.60;94.10;;;;;;4946920;29;20031;-46
2022/10/29 13:06:46;;;;;;;9.80;2.40;;;27.60;94.00;;;;;;4944436;29;20050;-44
2022/10/29 13:09:22;;;;;;;6.43;2.25;;;27.60;94.10;;;;;;4947510;29;20035;-45
2022/10/29 13:11:54;;;;;;;5.75;2.20;;;27.60;94.10;;;;;;4947160;29;20031;-46
2022/10/29 13:14:23;;;;;;;8.98;2.72;;;27.70;94.20;;;;;;4947585;29;20027;-44
2022/10/29 13:16:51;;;;;;;9.85;2.80;;;27.70;94.20;;;;;;4947345;29;20307;-49
2022/10/29 13:19:37;;;;;;;8.23;2.65;;;27.70;94.40;;;;;;4947198;29;20168;-44